createdAt,value
2024-05-09T00:00:36.247Z,103030.31
2024-05-09T00:03:10.965Z,103032.56
2024-05-09T00:05:41.234Z,103025.28
2024-05-09T00:08:09.507Z,103026.66
2024-05-09T00:10:38.927Z,103022.16
2024-05-09T00:13:07.659Z,103026.16
2024-05-09T00:15:35.348Z,103021.63
2024-05-09T00:18:03.257Z,103019.13
2024-05-09T00:20:37.562Z,103018.91
2024-05-09T00:23:07.775Z,103024.38
2024-05-09T00:25:35.039Z,103022.00
2024-05-09T00:28:01.998Z,103014.06
2024-05-09T00:30:34.262Z,103015.47
2024-05-09T00:33:09.308Z,103014.06
2024-05-09T00:35:37.483Z,103011.38
2024-05-09T00:38:06.180Z,103011.09
2024-05-09T00:40:40.693Z,103005.19
2024-05-09T00:43:14.300Z,102996.84
2024-05-09T00:45:42.218Z,103002.75
2024-05-09T00:48:13.488Z,103000.31
2024-05-09T00:50:44.160Z,102997.75
2024-05-09T00:53:12.937Z,102993.03
2024-05-09T00:55:40.405Z,102998.13
2024-05-09T00:58:10.017Z,102999.94
2024-05-09T01:00:40.006Z,102997.88
2024-05-09T01:03:12.769Z,103002.28
2024-05-09T01:05:41.396Z,102997.50
2024-05-09T01:08:09.821Z,102994.97
2024-05-09T01:10:42.849Z,102994.13
2024-05-09T01:13:11.780Z,102998.16
2024-05-09T01:15:38.417Z,103004.59
2024-05-09T01:18:09.767Z,102996.09
2024-05-09T01:20:42.064Z,103000.97
2024-05-09T01:23:12.234Z,103000.53
2024-05-09T01:25:39.885Z,102999.09
2024-05-09T01:28:07.311Z,103000.09
2024-05-09T01:30:36.525Z,102992.38
2024-05-09T01:33:09.855Z,102991.56
2024-05-09T01:35:39.055Z,102989.47
2024-05-09T01:38:06.803Z,102988.94
2024-05-09T01:40:38.388Z,102989.47
2024-05-09T01:43:09.050Z,102985.34
2024-05-09T01:45:37.025Z,102984.88
2024-05-09T01:48:04.373Z,102981.06
2024-05-09T01:53:00.976Z,102984.25
2024-05-09T01:55:27.660Z,102986.44
2024-05-09T01:57:54.334Z,102987.25
2024-05-09T02:00:30.620Z,102977.25
2024-05-09T02:03:05.211Z,102981.25
2024-05-09T02:05:32.124Z,102984.41
2024-05-09T02:07:58.921Z,102987.41
2024-05-09T02:10:32.056Z,102977.88
2024-05-09T02:12:59.805Z,102983.97
2024-05-09T02:15:26.450Z,102981.69
2024-05-09T02:17:53.398Z,102981.00
2024-05-09T02:20:30.054Z,102983.25
2024-05-09T02:23:04.140Z,102978.69
2024-05-09T02:25:32.022Z,102983.41
2024-05-09T02:27:58.978Z,102990.03
2024-05-09T02:30:35.667Z,102983.94
2024-05-09T02:33:07.140Z,102991.22
2024-05-09T02:35:34.223Z,102982.97
2024-05-09T02:38:01.094Z,102982.22
2024-05-09T02:40:35.810Z,102990.28
2024-05-09T02:43:05.501Z,102980.28
2024-05-09T02:45:32.367Z,102985.13
2024-05-09T02:47:59.231Z,102977.22
2024-05-09T02:50:34.371Z,102972.59
2024-05-09T02:53:06.062Z,102976.22
2024-05-09T02:55:34.432Z,102973.66
2024-05-09T02:58:01.174Z,102977.13
2024-05-09T03:00:36.675Z,102971.03
2024-05-09T03:03:08.628Z,102973.72
2024-05-09T03:05:36.954Z,102971.81
2024-05-09T03:08:04.518Z,102976.44
2024-05-09T03:10:36.096Z,102978.88
2024-05-09T03:13:14.659Z,102968.06
2024-05-09T03:15:42.947Z,102973.03
2024-05-09T03:18:10.780Z,102976.31
2024-05-09T03:20:38.317Z,102974.84
2024-05-09T03:23:08.150Z,102963.50
2024-05-09T03:25:35.981Z,102968.94
2024-05-09T03:28:02.791Z,102964.84
2024-05-09T03:30:36.646Z,102968.47
2024-05-09T03:33:13.466Z,102964.22
2024-05-09T03:35:41.393Z,102955.69
2024-05-09T03:38:08.534Z,102962.28
2024-05-09T03:40:35.530Z,102965.09
2024-05-09T03:43:02.199Z,102962.81
2024-05-09T03:45:28.805Z,102959.41
2024-05-09T03:47:55.616Z,102969.81
2024-05-09T03:50:29.831Z,102960.28
2024-05-09T03:53:01.284Z,102959.94
2024-05-09T03:55:28.297Z,102961.38
2024-05-09T03:57:55.124Z,102961.56
2024-05-09T04:00:31.094Z,102958.66
2024-05-09T04:03:05.506Z,102962.28
2024-05-09T04:05:33.271Z,102972.81
2024-05-09T04:08:00.172Z,102967.25
2024-05-09T04:10:33.633Z,102965.78
2024-05-09T04:13:02.019Z,102971.03
2024-05-09T04:15:28.980Z,102970.09
2024-05-09T04:17:56.309Z,102973.19
2024-05-09T04:20:33.372Z,102970.34
2024-05-09T04:23:12.006Z,102967.16
2024-05-09T04:25:42.450Z,102970.00
2024-05-09T04:28:09.096Z,102971.16
2024-05-09T04:30:39.284Z,102959.84
2024-05-09T04:33:11.164Z,102966.34
2024-05-09T04:35:41.900Z,102968.47
2024-05-09T04:38:09.008Z,102972.56
2024-05-09T04:40:37.239Z,102965.94
2024-05-09T04:43:15.045Z,102984.59
2024-05-09T04:45:42.012Z,102975.97
2024-05-09T04:48:08.967Z,102972.91
2024-05-09T04:50:38.709Z,102980.09
2024-05-09T04:53:09.273Z,102981.44
2024-05-09T04:55:37.610Z,102980.22
2024-05-09T04:58:05.596Z,102986.75
2024-05-09T05:00:37.040Z,102978.63
2024-05-09T05:03:11.032Z,102975.16
2024-05-09T05:05:41.004Z,102982.25
2024-05-09T05:08:15.243Z,102987.16
2024-05-09T05:10:43.471Z,102986.25
2024-05-09T05:13:22.292Z,102988.78
2024-05-09T05:15:53.313Z,102983.44
2024-05-09T05:18:20.442Z,102995.78
2024-05-09T05:20:47.431Z,103005.28
2024-05-09T05:23:16.594Z,102998.75
2024-05-09T05:25:44.124Z,102999.47
2024-05-09T05:28:11.166Z,103001.19
2024-05-09T05:30:38.953Z,102999.91
2024-05-09T05:33:06.985Z,102993.31
2024-05-09T05:35:34.716Z,102992.03
2024-05-09T05:38:01.893Z,102997.63
2024-05-09T05:40:36.177Z,102994.66
2024-05-09T05:43:10.032Z,102998.47
2024-05-09T05:45:37.190Z,102997.97
2024-05-09T05:48:05.930Z,102991.13
2024-05-09T05:50:36.523Z,103003.72
2024-05-09T05:53:09.571Z,103001.03
2024-05-09T05:55:37.746Z,103000.50
2024-05-09T05:58:04.739Z,103000.34
2024-05-09T06:00:38.359Z,103001.03
2024-05-09T06:03:07.546Z,102990.31
2024-05-09T06:05:35.288Z,103001.16
2024-05-09T06:08:02.093Z,102995.69
2024-05-09T06:10:37.539Z,102999.53
2024-05-09T06:13:07.064Z,102991.28
2024-05-09T06:15:33.808Z,102985.59
2024-05-09T06:18:00.656Z,102985.81
2024-05-09T06:20:35.179Z,102984.22
2024-05-09T06:23:05.300Z,102992.38
2024-05-09T06:25:32.277Z,102985.66
2024-05-09T06:28:00.494Z,102984.69
2024-05-09T06:30:36.637Z,102985.53
2024-05-09T06:33:07.810Z,102980.88
2024-05-09T06:35:35.040Z,102972.97
2024-05-09T06:38:02.102Z,102978.50
2024-05-09T06:40:36.875Z,102970.34
2024-05-09T06:43:13.655Z,102971.81
2024-05-09T06:45:40.620Z,102971.22
2024-05-09T06:48:09.280Z,102976.09
2024-05-09T06:50:38.330Z,102975.72
2024-05-09T06:53:07.116Z,102986.50
2024-05-09T06:55:34.056Z,102980.81
2024-05-09T06:58:00.755Z,102981.22
2024-05-09T07:00:35.335Z,102983.25
2024-05-09T07:03:09.987Z,102981.81
2024-05-09T07:05:37.660Z,102978.78
2024-05-09T07:08:05.072Z,102981.84
2024-05-09T07:10:35.192Z,102981.44
2024-05-09T07:13:02.845Z,102979.19
2024-05-09T07:15:29.547Z,102981.84
2024-05-09T07:17:56.315Z,102971.22
2024-05-09T07:20:32.011Z,102971.22
2024-05-09T07:23:02.640Z,102982.63
2024-05-09T07:25:29.635Z,102975.31
2024-05-09T07:27:56.427Z,102981.81
2024-05-09T07:30:27.909Z,102974.06
2024-05-09T07:33:00.405Z,102978.72
2024-05-09T07:35:27.734Z,102976.69
2024-05-09T07:37:54.677Z,102976.06
2024-05-09T07:40:31.846Z,102966.28
2024-05-09T07:43:07.314Z,102959.91
2024-05-09T07:52:32.573Z,102962.53
2024-05-09T07:55:54.016Z,102965.09
2024-05-09T07:58:22.363Z,102958.72
2024-05-09T08:00:49.195Z,102951.69
2024-05-09T08:03:16.131Z,102959.06
2024-05-09T08:05:42.955Z,102952.25
2024-05-09T08:08:11.362Z,102959.38
2024-05-09T08:10:38.069Z,102952.13
2024-05-09T08:13:05.043Z,102954.47
2024-05-09T08:15:31.981Z,102941.78
2024-05-09T08:17:59.424Z,102945.19
2024-05-09T08:20:31.143Z,102938.31
2024-05-09T08:23:01.673Z,102944.81
2024-05-09T08:25:28.523Z,102944.16
2024-05-09T08:27:55.234Z,102945.13
2024-05-09T08:30:29.777Z,102951.91
2024-05-09T08:33:05.009Z,102941.06
2024-05-09T08:35:32.899Z,102939.53
2024-05-09T08:37:59.909Z,102941.22
2024-05-09T08:40:34.112Z,102933.59
2024-05-09T08:43:11.429Z,102939.78
2024-05-09T08:45:43.670Z,102942.84
2024-05-09T08:48:13.329Z,102953.63
2024-05-09T08:50:41.040Z,102944.84
2024-05-09T08:53:08.856Z,102945.28
2024-05-09T08:55:40.243Z,102938.91
2024-05-09T08:58:12.585Z,102945.66
2024-05-09T09:00:41.993Z,102943.81
2024-05-09T09:03:11.537Z,102940.69
2024-05-09T09:05:40.095Z,102943.81
2024-05-09T09:08:08.699Z,102946.59
2024-05-09T09:10:38.040Z,102943.16
2024-05-09T09:13:07.286Z,102938.06
2024-05-09T09:15:34.140Z,102927.63
2024-05-09T09:18:01.423Z,102939.56
2024-05-09T09:20:35.869Z,102938.00
2024-05-09T09:23:04.521Z,102935.78
2024-05-09T09:25:31.730Z,102931.47
2024-05-09T09:27:58.924Z,102923.91
2024-05-09T09:30:36.304Z,102922.56
2024-05-09T09:33:06.076Z,102918.56
2024-05-09T09:35:33.154Z,102921.34
2024-05-09T09:38:04.545Z,102917.41
2024-05-09T09:40:37.280Z,102919.34
2024-05-09T09:43:13.873Z,102921.38
2024-05-09T09:45:43.248Z,102916.41
2024-05-09T09:48:10.692Z,102917.75
2024-05-09T09:50:38.879Z,102918.94
2024-05-09T09:53:07.632Z,102915.22
2024-05-09T09:55:35.632Z,102906.41
2024-05-09T09:58:04.839Z,102915.56
2024-05-09T10:00:34.700Z,102911.38
2024-05-09T10:03:02.237Z,102916.72
2024-05-09T10:05:30.294Z,102915.09
2024-05-09T10:07:58.747Z,102895.13
2024-05-09T10:10:31.772Z,102895.38
2024-05-09T10:13:00.342Z,102897.88
2024-05-09T10:15:27.592Z,102891.56
2024-05-09T10:17:54.755Z,102890.06
2024-05-09T10:20:27.994Z,102887.22
2024-05-09T10:22:57.670Z,102887.56
2024-05-09T10:25:25.149Z,102889.13
2024-05-09T10:27:55.857Z,102874.63
2024-05-09T10:32:56.815Z,102882.25
2024-05-09T10:35:25.361Z,102882.88
2024-05-09T10:37:53.180Z,102886.84
2024-05-09T10:40:26.425Z,102882.94
2024-05-09T10:43:02.529Z,102874.28
2024-05-09T10:45:32.022Z,102872.63
2024-05-09T10:47:58.983Z,102870.03
2024-05-09T10:50:29.184Z,102873.06
2024-05-09T10:53:00.548Z,102867.72
2024-05-09T10:55:27.544Z,102866.50
2024-05-09T10:57:54.455Z,102862.50
2024-05-09T11:00:27.658Z,102866.81
2024-05-09T11:03:00.179Z,102860.88
2024-05-09T11:05:27.228Z,102859.06
2024-05-09T11:07:54.975Z,102858.88
2024-05-09T11:10:27.750Z,102851.03
2024-05-09T11:13:00.261Z,102854.91
2024-05-09T11:15:38.018Z,102848.78
2024-05-09T11:18:05.338Z,102847.72
2024-05-09T11:20:35.863Z,102847.78
2024-05-09T11:23:06.514Z,102849.09
2024-05-09T11:25:33.507Z,102844.09
2024-05-09T11:28:01.190Z,102837.69
2024-05-09T11:30:32.019Z,102835.28
2024-05-09T11:32:59.496Z,102835.28
2024-05-09T11:35:27.033Z,102831.97
2024-05-09T11:37:53.780Z,102840.31
2024-05-09T11:40:25.636Z,102837.09
2024-05-09T11:42:58.786Z,102834.94
2024-05-09T11:45:25.630Z,102835.03
2024-05-09T11:47:52.872Z,102825.91
2024-05-09T11:50:27.034Z,102825.41
2024-05-09T11:52:56.954Z,102825.03
2024-05-09T11:55:27.745Z,102826.25
2024-05-09T11:57:55.820Z,102825.75
2024-05-09T12:00:32.991Z,102829.00
2024-05-09T12:03:04.944Z,102821.03
2024-05-09T12:05:32.403Z,102809.34
2024-05-09T12:07:59.513Z,102822.25
2024-05-09T12:10:32.449Z,102807.28
2024-05-09T12:13:02.117Z,102814.56
2024-05-09T12:15:29.077Z,102812.75
2024-05-09T12:17:58.385Z,102807.72
2024-05-09T12:20:35.267Z,102805.69
2024-05-09T12:23:05.701Z,102805.78
2024-05-09T12:25:32.406Z,102809.63
2024-05-09T12:27:59.461Z,102802.91
2024-05-09T12:30:35.329Z,102797.75
2024-05-09T12:33:06.823Z,102800.06
2024-05-09T12:35:33.540Z,102801.88
2024-05-09T12:38:00.334Z,102796.84
2024-05-09T12:40:35.402Z,102789.56
2024-05-09T12:43:06.587Z,102792.56
2024-05-09T12:45:33.695Z,102790.94
2024-05-09T12:48:00.819Z,102793.06
2024-05-09T12:50:32.584Z,102785.09
2024-05-09T12:53:02.112Z,102779.91
2024-05-09T12:55:34.032Z,102785.81
2024-05-09T12:58:08.556Z,102781.66
2024-05-09T13:00:35.960Z,102784.03
2024-05-09T13:03:03.085Z,102767.53
2024-05-09T13:05:30.142Z,102774.06
2024-05-09T13:07:57.414Z,102775.47
2024-05-09T13:10:31.777Z,102779.81
2024-05-09T13:13:00.933Z,102772.63
2024-05-09T13:15:28.737Z,102769.91
2024-05-09T13:17:58.345Z,102771.47
2024-05-09T13:20:32.776Z,102777.63
2024-05-09T13:23:02.723Z,102767.69
2024-05-09T13:25:29.547Z,102771.94
2024-05-09T13:27:57.191Z,102767.34
2024-05-09T13:30:29.999Z,102767.41
2024-05-09T13:33:06.083Z,102772.75
2024-05-09T13:35:35.201Z,102771.38
2024-05-09T13:38:03.099Z,102766.03
2024-05-09T13:40:34.243Z,102771.00
2024-05-09T13:43:04.023Z,102772.16
2024-05-09T13:45:31.116Z,102773.44
2024-05-09T13:47:58.158Z,102773.13
2024-05-09T13:50:33.185Z,102766.03
2024-05-09T13:53:03.029Z,102766.22
2024-05-09T13:55:29.738Z,102776.66
2024-05-09T13:57:56.741Z,102773.47
2024-05-09T14:00:37.797Z,102775.03
2024-05-09T14:03:10.575Z,102766.28
2024-05-09T14:05:37.729Z,102759.44
2024-05-09T14:08:04.857Z,102757.91
2024-05-09T14:10:32.467Z,102760.09
2024-05-09T14:13:00.477Z,102758.22
2024-05-09T14:15:27.522Z,102759.34
2024-05-09T14:17:55.011Z,102750.25
2024-05-09T14:22:51.299Z,102751.69
2024-05-09T14:25:18.204Z,102744.22
2024-05-09T14:27:45.087Z,102750.13
2024-05-09T14:30:18.421Z,102747.69
2024-05-09T14:32:52.902Z,102739.88
2024-05-09T14:35:19.991Z,102742.75
2024-05-09T14:37:46.791Z,102744.06
2024-05-09T14:40:30.365Z,102734.66
2024-05-09T14:43:03.206Z,102734.72
2024-05-09T14:45:30.254Z,102736.34
2024-05-09T14:47:57.415Z,102731.03
2024-05-09T14:50:34.401Z,102735.44
2024-05-09T14:53:04.459Z,102724.38
2024-05-09T14:55:31.233Z,102723.06
2024-05-09T14:57:58.031Z,102717.03
2024-05-09T15:00:29.032Z,102716.44
2024-05-09T15:03:00.565Z,102711.91
2024-05-09T15:05:27.479Z,102714.63
2024-05-09T15:07:54.336Z,102716.25
2024-05-09T15:10:27.365Z,102700.19
2024-05-09T15:13:01.000Z,102702.59
2024-05-09T15:15:27.882Z,102694.34
2024-05-09T15:17:55.509Z,102695.69
2024-05-09T15:20:31.228Z,102694.78
2024-05-09T15:23:02.332Z,102701.94
2024-05-09T15:25:33.698Z,102690.13
2024-05-09T15:28:00.523Z,102684.06
2024-05-09T15:30:31.521Z,102689.22
2024-05-09T15:33:01.263Z,102687.63
2024-05-09T15:35:28.310Z,102678.75
2024-05-09T15:37:55.397Z,102687.81
2024-05-09T15:40:31.237Z,102682.16
2024-05-09T15:43:05.846Z,102683.00
2024-05-09T15:45:32.879Z,102671.78
2024-05-09T15:48:00.214Z,102673.97
2024-05-09T15:50:35.905Z,102675.84
2024-05-09T15:53:07.473Z,102671.72
2024-05-09T15:55:35.000Z,102673.81
2024-05-09T15:58:03.451Z,102667.31
2024-05-09T16:00:37.806Z,102669.75
2024-05-09T16:03:12.210Z,102662.63
2024-05-09T16:05:40.772Z,102663.31
2024-05-09T16:08:08.107Z,102656.09
2024-05-09T16:10:35.589Z,102661.94
2024-05-09T16:13:03.686Z,102658.59
2024-05-09T16:15:30.966Z,102658.22
2024-05-09T16:17:57.931Z,102657.84
2024-05-09T16:20:34.385Z,102650.69
2024-05-09T16:23:06.561Z,102646.00
2024-05-09T16:25:33.709Z,102644.97
2024-05-09T16:28:00.901Z,102652.78
2024-05-09T16:30:34.085Z,102651.84
2024-05-09T16:33:03.867Z,102648.63
2024-05-09T16:35:31.293Z,102644.03
2024-05-09T16:37:58.064Z,102638.47
2024-05-09T16:40:33.843Z,102634.75
2024-05-09T16:43:05.441Z,102634.25
2024-05-09T16:45:32.361Z,102635.09
2024-05-09T16:47:59.706Z,102633.78
2024-05-09T16:50:32.329Z,102631.66
2024-05-09T16:53:01.898Z,102628.34
2024-05-09T16:55:28.834Z,102632.56
2024-05-09T16:57:56.778Z,102633.63
2024-05-09T17:00:34.923Z,102634.66
2024-05-09T17:03:07.971Z,102639.69
2024-05-09T17:05:35.592Z,102639.44
2024-05-09T17:08:03.131Z,102640.56
2024-05-09T17:10:33.606Z,102634.94
2024-05-09T17:13:06.583Z,102631.78
2024-05-09T17:15:35.189Z,102629.19
2024-05-09T17:18:02.384Z,102631.00
2024-05-09T17:20:33.756Z,102629.44
2024-05-09T17:23:05.108Z,102634.31
2024-05-09T17:25:32.615Z,102635.88
2024-05-09T17:28:06.394Z,102628.63
2024-05-09T17:30:36.675Z,102626.69
2024-05-09T17:33:06.847Z,102626.94
2024-05-09T17:35:34.671Z,102629.31
2024-05-09T17:38:01.807Z,102629.28
2024-05-09T17:40:33.588Z,102616.38
2024-05-09T17:43:04.191Z,102626.44
2024-05-09T17:45:31.961Z,102626.13
2024-05-09T17:47:59.179Z,102628.50
2024-05-09T17:50:31.946Z,102617.81
2024-05-09T17:55:29.971Z,102623.22
2024-05-09T17:57:57.173Z,102621.56
2024-05-09T18:00:36.089Z,102619.41
2024-05-09T18:03:06.677Z,102619.03
2024-05-09T18:05:35.583Z,102619.75
2024-05-09T18:08:03.058Z,102617.75
2024-05-09T18:10:35.717Z,102622.47
2024-05-09T18:13:06.100Z,102621.84
2024-05-09T18:15:33.355Z,102618.59
2024-05-09T18:18:00.771Z,102621.97
2024-05-09T18:20:37.606Z,102623.25
2024-05-09T18:23:10.479Z,102624.31
2024-05-09T18:25:37.307Z,102621.34
2024-05-09T18:28:04.748Z,102617.38
2024-05-09T18:30:35.089Z,102617.38
2024-05-09T18:33:05.117Z,102614.63
2024-05-09T18:35:33.153Z,102620.53
2024-05-09T18:37:59.919Z,102613.19
2024-05-09T18:40:33.390Z,102611.50
2024-05-09T18:43:05.228Z,102616.66
2024-05-09T18:45:33.210Z,102618.84
2024-05-09T18:48:00.280Z,102625.78
2024-05-09T18:50:34.624Z,102620.63
2024-05-09T18:53:08.695Z,102625.03
2024-05-09T18:55:35.700Z,102627.31
2024-05-09T18:58:03.691Z,102629.25
2024-05-09T19:00:35.942Z,102637.03
2024-05-09T19:03:11.243Z,102629.53
2024-05-09T19:05:40.733Z,102623.13
2024-05-09T19:08:08.425Z,102622.16
2024-05-09T19:10:37.109Z,102624.09
2024-05-09T19:13:09.311Z,102631.50
2024-05-09T19:15:40.146Z,102634.84
2024-05-09T19:18:07.828Z,102630.78
2024-05-09T19:20:36.327Z,102630.31
2024-05-09T19:23:04.937Z,102644.13
2024-05-09T19:25:32.527Z,102637.84
2024-05-09T19:27:59.984Z,102641.56
2024-05-09T19:30:36.385Z,102631.56
2024-05-09T19:33:07.372Z,102634.44
2024-05-09T19:35:34.100Z,102644.34
2024-05-09T19:38:00.952Z,102637.25
2024-05-09T19:40:31.966Z,102640.00
2024-05-09T19:43:01.748Z,102634.66
2024-05-09T19:45:29.208Z,102634.91
2024-05-09T19:47:56.307Z,102635.94
2024-05-09T19:50:31.694Z,102633.91
2024-05-09T19:53:06.406Z,102643.44
2024-05-09T19:55:33.791Z,102634.72
2024-05-09T19:58:04.850Z,102637.84
2024-05-09T20:00:38.618Z,102639.97
2024-05-09T20:03:08.224Z,102641.38
2024-05-09T20:05:35.621Z,102641.16
2024-05-09T20:08:02.811Z,102643.94
2024-05-09T20:10:32.280Z,102646.81
2024-05-09T20:13:01.088Z,102647.72
2024-05-09T20:15:27.868Z,102648.66
2024-05-09T20:17:54.955Z,102649.16
2024-05-09T20:22:51.870Z,102642.88
2024-05-09T20:25:18.656Z,102639.88
2024-05-09T20:27:45.386Z,102644.50
2024-05-09T20:30:16.985Z,102647.19
2024-05-09T20:32:48.178Z,102649.94
2024-05-09T20:35:14.936Z,102651.56
2024-05-09T20:37:41.611Z,102655.16
2024-05-09T20:40:15.362Z,102657.69
2024-05-09T20:42:45.442Z,102651.53
2024-05-09T20:45:12.181Z,102662.84
2024-05-09T20:47:38.957Z,102659.91
2024-05-09T20:50:11.420Z,102667.38
2024-05-09T20:52:43.026Z,102662.72
2024-05-09T20:55:09.830Z,102658.00
2024-05-09T20:57:36.564Z,102659.72
2024-05-09T21:00:05.743Z,102657.16
2024-05-09T21:02:38.296Z,102659.34
2024-05-09T21:05:05.338Z,102656.25
2024-05-09T21:07:32.202Z,102658.44
2024-05-09T21:09:58.872Z,102657.81
2024-05-09T21:12:25.500Z,102657.06
2024-05-09T21:14:52.174Z,102662.91
2024-05-09T21:17:18.908Z,102653.47
2024-05-09T21:19:45.697Z,102657.06
2024-05-09T21:22:12.527Z,102651.09
2024-05-09T21:24:39.235Z,102648.22
2024-05-09T21:27:05.782Z,102646.59
2024-05-09T21:29:32.426Z,102660.03
2024-05-09T21:31:58.991Z,102653.63
2024-05-09T21:34:25.746Z,102649.72
2024-05-09T21:36:52.472Z,102647.56
2024-05-09T21:39:19.478Z,102652.97
2024-05-09T21:41:46.189Z,102651.56
2024-05-09T21:44:13.053Z,102650.16
2024-05-09T21:46:39.814Z,102656.47
2024-05-09T21:49:06.583Z,102656.84
2024-05-09T21:51:33.322Z,102654.72
2024-05-09T21:54:00.076Z,102647.28
2024-05-09T21:56:26.750Z,102655.41
2024-05-09T21:58:53.566Z,102651.34
2024-05-09T22:01:20.307Z,102653.09
2024-05-09T22:03:47.175Z,102640.72
2024-05-09T22:06:16.449Z,102651.19
2024-05-09T22:08:43.145Z,102653.81
2024-05-09T22:11:09.907Z,102650.97
2024-05-09T22:13:36.582Z,102643.13
2024-05-09T22:16:06.156Z,102644.75
2024-05-09T22:18:32.962Z,102654.03
2024-05-09T22:20:59.742Z,102652.91
2024-05-09T22:23:26.436Z,102651.66
2024-05-09T22:25:53.147Z,102650.41
2024-05-09T22:28:20.017Z,102645.94
2024-05-09T22:30:47.665Z,102648.59
2024-05-09T22:33:15.033Z,102653.06
2024-05-09T22:35:41.950Z,102654.16
2024-05-09T22:38:08.780Z,102649.72
2024-05-09T22:40:46.597Z,102653.03
2024-05-09T22:43:21.025Z,102656.91
2024-05-09T22:45:50.002Z,102663.66
2024-05-09T22:48:16.928Z,102656.16
2024-05-09T22:50:43.638Z,102652.31
2024-05-09T22:53:10.284Z,102655.97
2024-05-09T22:55:36.936Z,102651.09
2024-05-09T22:58:03.743Z,102649.31
2024-05-09T23:00:32.369Z,102656.25
2024-05-09T23:03:01.169Z,102644.22
2024-05-09T23:05:28.551Z,102658.50
2024-05-09T23:07:55.306Z,102652.81
2024-05-09T23:10:30.700Z,102648.38
2024-05-09T23:13:02.268Z,102664.47
2024-05-09T23:15:29.095Z,102656.13
2024-05-09T23:17:56.096Z,102654.56
2024-05-09T23:20:33.281Z,102652.75
2024-05-09T23:23:05.266Z,102646.69
2024-05-09T23:25:31.989Z,102650.75
2024-05-09T23:27:58.828Z,102653.66
2024-05-09T23:30:33.743Z,102648.38
2024-05-09T23:33:05.682Z,102647.78
2024-05-09T23:35:32.714Z,102642.47
2024-05-09T23:37:59.548Z,102638.41
2024-05-09T23:40:37.048Z,102636.38
2024-05-09T23:43:07.099Z,102635.78
2024-05-09T23:45:34.236Z,102643.97
2024-05-09T23:48:01.463Z,102637.91
2024-05-09T23:50:34.630Z,102641.41
2024-05-09T23:53:04.602Z,102637.75
2024-05-09T23:55:32.062Z,102640.63
2024-05-09T23:57:59.199Z,102639.03
